createdAt,value
2019-04-07T00:00:29.045Z,12.10
2019-04-07T00:02:57.482Z,12.00
2019-04-07T00:05:26.568Z,11.90
2019-04-07T00:07:55.769Z,11.90
2019-04-07T00:10:24.939Z,11.80
2019-04-07T00:12:53.910Z,11.70
2019-04-07T00:15:22.998Z,11.70
2019-04-07T00:17:51.506Z,11.70
2019-04-07T00:20:20.022Z,11.60
2019-04-07T00:22:48.810Z,11.50
2019-04-07T00:25:17.721Z,11.40
2019-04-07T00:27:46.626Z,11.50
2019-04-07T00:30:15.560Z,11.50
2019-04-07T00:32:44.255Z,11.40
2019-04-07T00:35:23.248Z,11.40
2019-04-07T00:37:43.136Z,11.50
2019-04-07T00:40:13.126Z,11.50
2019-04-07T00:42:41.556Z,11.50
2019-04-07T00:45:10.722Z,11.50
2019-04-07T00:47:39.153Z,11.50
2019-04-07T00:50:07.933Z,11.40
2019-04-07T00:52:36.920Z,11.30
2019-04-07T00:55:07.662Z,11.30
2019-04-07T00:57:36.334Z,11.30
2019-04-07T01:00:09.560Z,11.30
2019-04-07T01:02:38.751Z,11.30
2019-04-07T01:05:07.478Z,11.20
2019-04-07T01:07:36.119Z,11.20
2019-04-07T01:10:06.173Z,11.20
2019-04-07T01:12:34.692Z,11.20
2019-04-07T01:15:04.296Z,11.10
2019-04-07T01:17:33.329Z,11.00
2019-04-07T01:20:01.825Z,10.90
2019-04-07T01:22:30.882Z,10.90
2019-04-07T01:24:59.445Z,10.90
2019-04-07T01:27:28.520Z,10.90
2019-04-07T01:29:57.110Z,10.90
2019-04-07T01:32:25.704Z,11.00
2019-04-07T01:34:54.710Z,11.00
2019-04-07T01:37:23.297Z,11.10
2019-04-07T01:39:51.739Z,11.10
2019-04-07T01:42:33.709Z,11.10
2019-04-07T01:45:12.812Z,11.20
2019-04-07T01:47:43.109Z,11.10
2019-04-07T01:50:13.412Z,11.10
2019-04-07T01:52:50.306Z,11.10
2019-04-07T01:55:26.861Z,11.10
2019-04-07T01:58:12.008Z,11.00
2019-04-07T02:00:42.943Z,10.80
2019-04-07T02:03:13.078Z,10.70
2019-04-07T02:05:58.623Z,10.70
2019-04-07T02:08:23.384Z,10.70
2019-04-07T02:10:53.503Z,10.70
2019-04-07T02:13:36.148Z,10.80
2019-04-07T02:16:09.206Z,10.90
2019-04-07T02:18:40.007Z,10.90
2019-04-07T02:21:10.292Z,10.90
2019-04-07T02:23:55.949Z,10.90
2019-04-07T02:26:28.976Z,10.80
2019-04-07T02:29:02.696Z,10.80
2019-04-07T02:31:35.956Z,10.70
2019-04-07T02:34:12.243Z,10.70
2019-04-07T02:36:44.970Z,10.70
2019-04-07T02:39:21.503Z,10.70
2019-04-07T02:41:54.782Z,10.70
2019-04-07T02:44:41.041Z,10.70
2019-04-07T02:47:11.202Z,10.70
2019-04-07T02:49:43.924Z,10.70
2019-04-07T02:52:23.020Z,10.60
2019-04-07T02:54:55.846Z,10.60
2019-04-07T02:57:26.124Z,10.60
2019-04-07T02:59:57.828Z,10.60
2019-04-07T03:02:28.369Z,10.60
2019-04-07T03:05:05.304Z,10.60
2019-04-07T03:07:42.043Z,10.50
2019-04-07T03:10:12.813Z,10.50
2019-04-07T03:12:48.950Z,10.40
2019-04-07T03:15:24.961Z,10.40
2019-04-07T03:18:00.997Z,10.30
2019-04-07T03:20:31.191Z,10.30
2019-04-07T03:23:05.129Z,10.20
2019-04-07T03:25:53.235Z,10.20
2019-04-07T03:28:29.143Z,10.20
2019-04-07T03:31:12.842Z,10.20
2019-04-07T03:34:01.212Z,10.20
2019-04-07T03:37:08.953Z,10.20
2019-04-07T03:39:24.478Z,10.20
2019-04-07T03:41:57.643Z,10.20
2019-04-07T03:44:36.949Z,10.10
2019-04-07T03:47:22.324Z,10.10
2019-04-07T03:49:57.895Z,10.00
2019-04-07T03:52:46.768Z,9.90
2019-04-07T03:55:25.974Z,9.90
2019-04-07T03:58:08.260Z,9.80
2019-04-07T04:01:03.788Z,9.60
2019-04-07T04:03:37.386Z,9.60
2019-04-07T04:06:11.679Z,9.60
2019-04-07T04:08:58.695Z,9.50
2019-04-07T04:11:32.419Z,9.50
2019-04-07T04:14:15.199Z,9.40
2019-04-07T04:16:45.791Z,9.30
2019-04-07T04:19:14.507Z,9.30
2019-04-07T04:21:44.293Z,9.20
2019-04-07T04:24:12.942Z,9.10
2019-04-07T04:26:42.047Z,9.10
2019-04-07T04:29:10.826Z,9.10
2019-04-07T04:31:40.176Z,9.00
2019-04-07T04:34:09.587Z,8.90
2019-04-07T04:36:38.364Z,8.90
2019-04-07T04:39:08.259Z,8.80
2019-04-07T04:41:36.942Z,8.90
2019-04-07T04:44:05.416Z,8.80
2019-04-07T04:46:34.449Z,8.80
2019-04-07T04:49:03.029Z,8.80
2019-04-07T04:51:36.292Z,8.80
2019-04-07T04:54:01.661Z,8.90
2019-04-07T04:56:30.937Z,8.90
2019-04-07T04:58:59.806Z,8.90
2019-04-07T05:01:28.278Z,8.90
2019-04-07T05:03:56.730Z,8.90
2019-04-07T05:06:25.363Z,8.90
2019-04-07T05:08:54.521Z,8.90
2019-04-07T05:11:23.895Z,8.90
2019-04-07T05:13:52.994Z,8.90
2019-04-07T05:16:21.513Z,8.90
2019-04-07T05:18:50.035Z,8.90
2019-04-07T05:21:18.639Z,8.90
2019-04-07T05:23:47.173Z,8.90
2019-04-07T05:26:15.726Z,9.00
2019-04-07T05:28:44.996Z,9.00
2019-04-07T05:31:13.524Z,9.00
2019-04-07T05:33:42.049Z,9.00
2019-04-07T05:36:10.523Z,9.10
2019-04-07T05:38:39.512Z,9.20
2019-04-07T05:41:08.071Z,9.20
2019-04-07T05:43:36.965Z,9.30
2019-04-07T05:46:07.081Z,9.40
2019-04-07T05:48:36.101Z,9.50
2019-04-07T05:51:04.552Z,9.90
2019-04-07T05:53:33.320Z,10.20
2019-04-07T05:56:02.240Z,10.40
2019-04-07T05:58:30.777Z,10.60
2019-04-07T06:00:59.527Z,10.90
2019-04-07T06:03:28.628Z,11.10
2019-04-07T06:05:57.773Z,11.40
2019-04-07T06:08:33.729Z,11.70
2019-04-07T06:11:00.037Z,11.80
2019-04-07T06:13:26.757Z,12.00
2019-04-07T06:15:55.197Z,12.30
2019-04-07T06:18:23.955Z,12.80
2019-04-07T06:20:52.465Z,13.40
2019-04-07T06:23:24.237Z,13.70
2019-04-07T06:25:51.133Z,14.30
2019-04-07T06:28:19.647Z,14.60
2019-04-07T06:30:48.378Z,15.10
2019-04-07T06:33:17.490Z,15.50
2019-04-07T06:35:47.336Z,16.00
2019-04-07T06:38:16.636Z,16.50
2019-04-07T06:40:45.885Z,16.80
2019-04-07T06:43:14.604Z,17.00
2019-04-07T06:45:47.797Z,17.00
2019-04-07T06:48:16.621Z,16.90
2019-04-07T06:50:58.309Z,16.70
2019-04-07T06:53:27.941Z,16.50
2019-04-07T06:56:03.225Z,16.40
2019-04-07T06:58:41.408Z,16.40
2019-04-07T07:01:11.104Z,16.50
2019-04-07T07:03:47.622Z,17.00
2019-04-07T07:06:20.554Z,17.30
2019-04-07T07:08:55.653Z,17.50
2019-04-07T07:11:43.268Z,17.70
2019-04-07T07:14:36.701Z,18.00
2019-04-07T07:17:18.555Z,18.30
2019-04-07T07:19:48.757Z,18.70
2019-04-07T07:22:21.856Z,18.50
2019-04-07T07:24:50.388Z,18.10
2019-04-07T07:27:18.990Z,18.00
2019-04-07T07:29:48.544Z,18.00
2019-04-07T07:32:18.010Z,18.00
2019-04-07T07:34:46.660Z,17.70
2019-04-07T07:37:15.832Z,17.40
2019-04-07T07:39:45.168Z,17.00
2019-04-07T07:42:14.745Z,16.50
2019-04-07T07:44:43.836Z,16.10
2019-04-07T07:47:12.355Z,15.90
2019-04-07T07:49:41.498Z,15.70
2019-04-07T07:52:11.614Z,15.60
2019-04-07T07:54:41.017Z,15.50
2019-04-07T07:57:09.618Z,15.40
2019-04-07T07:59:39.437Z,15.40
2019-04-07T08:02:08.612Z,15.40
2019-04-07T08:04:37.763Z,15.60
2019-04-07T08:07:06.681Z,15.70
2019-04-07T08:09:35.278Z,15.70
2019-04-07T08:12:03.788Z,15.80
2019-04-07T08:14:32.498Z,15.90
2019-04-07T08:17:02.717Z,15.80
2019-04-07T08:19:31.768Z,15.80
2019-04-07T08:22:00.651Z,15.90
2019-04-07T08:24:29.358Z,16.00
2019-04-07T08:26:59.107Z,16.10
2019-04-07T08:29:28.048Z,16.10
2019-04-07T08:31:56.644Z,16.20
2019-04-07T08:34:25.486Z,16.20
2019-04-07T08:36:54.167Z,16.20
2019-04-07T08:39:25.660Z,16.20
2019-04-07T08:41:52.933Z,16.20
2019-04-07T08:44:21.611Z,16.40
2019-04-07T08:46:50.816Z,16.40
2019-04-07T08:49:23.378Z,16.40
2019-04-07T08:51:49.558Z,16.60
2019-04-07T08:54:18.445Z,16.80
2019-04-07T08:56:47.012Z,16.90
2019-04-07T08:59:17.018Z,17.00
2019-04-07T09:01:45.816Z,17.00
2019-04-07T09:04:16.523Z,16.90
2019-04-07T09:06:44.937Z,16.90
2019-04-07T09:09:14.043Z,16.90
2019-04-07T09:11:42.582Z,17.00
2019-04-07T09:14:11.044Z,17.10
2019-04-07T09:16:41.649Z,17.20
2019-04-07T09:19:23.773Z,17.40
2019-04-07T09:21:54.332Z,17.50
2019-04-07T09:24:24.892Z,17.50
2019-04-07T09:27:17.107Z,17.70
2019-04-07T09:30:02.487Z,17.80
2019-04-07T09:32:44.899Z,18.00
2019-04-07T09:35:27.089Z,18.10
2019-04-07T09:37:57.657Z,18.10
2019-04-07T09:40:46.269Z,18.00
2019-04-07T09:43:19.180Z,17.90
2019-04-07T09:45:55.835Z,17.70
2019-04-07T09:48:35.445Z,17.70
2019-04-07T09:51:17.652Z,17.80
2019-04-07T09:53:50.257Z,17.80
2019-04-07T09:56:37.890Z,18.00
2019-04-07T09:59:08.046Z,18.10
2019-04-07T10:01:38.907Z,18.20
2019-04-07T10:04:09.188Z,18.30
2019-04-07T10:06:49.581Z,18.40
2019-04-07T10:09:28.564Z,18.50
2019-04-07T10:11:58.755Z,18.60
2019-04-07T10:14:45.149Z,18.70
2019-04-07T10:17:24.353Z,18.80
2019-04-07T10:19:55.016Z,18.60
2019-04-07T10:22:32.002Z,18.60
2019-04-07T10:25:09.184Z,18.60
2019-04-07T10:27:39.709Z,18.70
2019-04-07T10:30:26.978Z,18.80
2019-04-07T10:33:00.213Z,18.80
2019-04-07T10:35:30.672Z,18.90
2019-04-07T10:38:07.458Z,18.80
2019-04-07T10:40:41.153Z,18.60
2019-04-07T10:43:28.159Z,18.60
2019-04-07T10:46:02.336Z,18.60
2019-04-07T10:48:33.262Z,18.60
2019-04-07T10:51:19.802Z,18.70
2019-04-07T10:53:56.202Z,18.70
2019-04-07T10:56:26.586Z,18.90
2019-04-07T10:58:56.797Z,19.00
2019-04-07T11:01:36.848Z,19.00
2019-04-07T11:04:07.233Z,19.10
2019-04-07T11:06:46.221Z,19.20
2019-04-07T11:09:22.416Z,19.30
2019-04-07T11:11:55.266Z,19.30
2019-04-07T11:14:41.690Z,19.20
2019-04-07T11:17:12.533Z,19.20
2019-04-07T11:19:59.061Z,19.20
2019-04-07T11:22:33.759Z,19.40
2019-04-07T11:25:06.625Z,19.30
2019-04-07T11:27:48.990Z,19.40
2019-04-07T11:30:31.073Z,19.40
2019-04-07T11:33:19.296Z,19.50
2019-04-07T11:35:49.519Z,19.50
2019-04-07T11:38:19.821Z,19.60
2019-04-07T11:40:59.452Z,19.70
2019-04-07T11:43:30.411Z,19.80
2019-04-07T11:46:03.055Z,19.80
2019-04-07T11:48:49.059Z,18.50
2019-04-07T11:51:28.051Z,19.60
2019-04-07T11:53:58.855Z,19.60
2019-04-07T11:56:29.639Z,19.70
2019-04-07T11:59:07.801Z,19.80
2019-04-07T12:01:50.152Z,19.90
2019-04-07T12:04:21.710Z,20.00
2019-04-07T12:06:54.748Z,20.00
2019-04-07T12:09:28.296Z,20.10
2019-04-07T12:12:07.982Z,20.10
2019-04-07T12:14:38.485Z,20.20
2019-04-07T12:17:25.435Z,20.20
2019-04-07T12:20:10.902Z,20.30
2019-04-07T12:22:50.186Z,20.40
2019-04-07T12:25:21.100Z,20.30
2019-04-07T12:28:03.558Z,20.10
2019-04-07T12:30:42.650Z,20.10
2019-04-07T12:33:19.072Z,20.00
2019-04-07T12:35:55.140Z,20.10
2019-04-07T12:38:26.481Z,20.10
2019-04-07T12:41:16.967Z,20.10
2019-04-07T12:43:47.439Z,20.20
2019-04-07T12:46:15.564Z,20.30
2019-04-07T12:48:51.415Z,20.40
2019-04-07T12:51:37.856Z,20.40
2019-04-07T12:54:11.793Z,20.40
2019-04-07T12:56:42.327Z,20.60
2019-04-07T12:59:24.429Z,20.70
2019-04-07T13:01:54.564Z,20.60
2019-04-07T13:04:25.479Z,20.30
2019-04-07T13:06:55.670Z,20.40
2019-04-07T13:09:37.721Z,20.30
2019-04-07T13:12:25.399Z,20.30
2019-04-07T13:14:59.019Z,20.30
2019-04-07T13:17:38.166Z,20.30
2019-04-07T13:20:09.188Z,20.40
2019-04-07T13:22:48.694Z,20.40
2019-04-07T13:25:25.163Z,20.40
2019-04-07T13:28:08.169Z,20.40
2019-04-07T13:30:41.093Z,20.40
2019-04-07T13:33:20.550Z,20.30
2019-04-07T13:36:02.783Z,20.40
2019-04-07T13:38:32.935Z,20.40
2019-04-07T13:41:12.261Z,20.40
2019-04-07T13:43:48.671Z,20.50
2019-04-07T13:46:36.264Z,20.60
2019-04-07T13:49:14.972Z,20.40
2019-04-07T13:51:59.907Z,20.30
2019-04-07T13:54:35.400Z,20.30
2019-04-07T13:57:25.618Z,20.30
2019-04-07T13:59:59.331Z,20.40
2019-04-07T14:02:38.882Z,20.50
2019-04-07T14:05:18.540Z,20.40
2019-04-07T14:07:55.412Z,20.40
2019-04-07T14:10:25.683Z,20.40
2019-04-07T14:12:55.767Z,20.40
2019-04-07T14:15:42.016Z,20.40
2019-04-07T14:18:30.936Z,20.40
2019-04-07T14:21:07.065Z,20.30
2019-04-07T14:23:42.554Z,20.30
2019-04-07T14:26:19.030Z,20.30
2019-04-07T14:28:54.870Z,20.30
2019-04-07T14:31:28.226Z,20.40
2019-04-07T14:34:13.917Z,20.40
2019-04-07T14:37:02.188Z,20.30
2019-04-07T14:39:32.503Z,20.20
2019-04-07T14:42:08.708Z,20.00
2019-04-07T14:44:50.023Z,19.80
2019-04-07T14:47:28.853Z,19.70
2019-04-07T14:50:07.949Z,19.60
2019-04-07T14:52:38.320Z,19.70
2019-04-07T14:55:18.388Z,19.70
2019-04-07T14:58:01.336Z,19.80
2019-04-07T15:00:34.480Z,19.80
2019-04-07T15:03:02.954Z,19.80
2019-04-07T15:05:33.031Z,19.70
2019-04-07T15:08:03.344Z,19.70
2019-04-07T15:10:34.072Z,19.80
2019-04-07T15:13:04.228Z,19.80
2019-04-07T15:15:33.804Z,19.80
2019-04-07T15:18:03.633Z,19.80
2019-04-07T15:20:32.314Z,19.80
2019-04-07T15:23:01.925Z,19.80
2019-04-07T15:25:31.369Z,19.80
2019-04-07T15:28:01.062Z,19.90
2019-04-07T15:30:29.985Z,19.80
2019-04-07T15:33:01.229Z,19.70
2019-04-07T15:35:29.621Z,19.70
2019-04-07T15:37:59.087Z,19.70
2019-04-07T15:40:28.168Z,19.70
2019-04-07T15:42:56.911Z,19.70
2019-04-07T15:45:25.439Z,19.70
2019-04-07T15:47:54.089Z,19.60
2019-04-07T15:50:22.687Z,19.60
2019-04-07T15:52:51.253Z,19.60
2019-04-07T15:55:19.837Z,19.60
2019-04-07T15:57:49.183Z,19.60
2019-04-07T16:00:19.536Z,19.50
2019-04-07T16:02:49.357Z,19.40
2019-04-07T16:05:18.336Z,19.40
2019-04-07T16:07:46.805Z,19.30
2019-04-07T16:10:18.677Z,19.30
2019-04-07T16:12:51.139Z,19.30
2019-04-07T16:15:18.165Z,19.30
2019-04-07T16:17:47.599Z,19.20
2019-04-07T16:20:22.938Z,19.20
2019-04-07T16:22:49.023Z,19.10
2019-04-07T16:25:17.283Z,19.10
2019-04-07T16:27:45.788Z,19.10
2019-04-07T16:30:16.429Z,19.00
2019-04-07T16:32:45.294Z,19.00
2019-04-07T16:35:16.317Z,18.90
2019-04-07T16:37:44.517Z,18.90
2019-04-07T16:40:13.173Z,18.80
2019-04-07T16:42:45.609Z,18.70
2019-04-07T16:45:16.463Z,18.60
2019-04-07T16:47:43.332Z,18.50
2019-04-07T16:50:12.254Z,18.50
2019-04-07T16:52:40.731Z,18.50
2019-04-07T16:55:28.614Z,18.50
2019-04-07T16:57:59.452Z,18.40
2019-04-07T17:00:28.007Z,18.30
2019-04-07T17:02:56.901Z,18.20
2019-04-07T17:05:25.664Z,18.10
2019-04-07T17:07:56.561Z,18.20
2019-04-07T17:10:28.856Z,18.10
2019-04-07T17:12:54.753Z,18.00
2019-04-07T17:15:23.435Z,17.90
2019-04-07T17:17:53.325Z,17.80
2019-04-07T17:20:22.968Z,17.70
2019-04-07T17:22:52.988Z,17.60
2019-04-07T17:25:21.730Z,17.50
2019-04-07T17:27:50.891Z,17.40
2019-04-07T17:30:24.339Z,17.30
2019-04-07T17:32:52.234Z,17.30
2019-04-07T17:35:21.606Z,17.20
2019-04-07T17:37:50.614Z,17.10
2019-04-07T17:40:23.421Z,17.00
2019-04-07T17:42:53.710Z,17.00
2019-04-07T17:45:24.639Z,16.90
2019-04-07T17:48:05.580Z,16.80
2019-04-07T17:50:33.669Z,16.80
2019-04-07T17:53:19.773Z,16.70
2019-04-07T17:55:52.775Z,16.60
2019-04-07T17:58:40.858Z,16.40
2019-04-07T18:01:23.227Z,16.20
2019-04-07T18:04:00.658Z,16.00
2019-04-07T18:06:32.082Z,16.00
2019-04-07T18:09:12.220Z,15.90
2019-04-07T18:11:40.148Z,15.90
2019-04-07T18:14:13.182Z,15.90
2019-04-07T18:16:55.112Z,15.80
2019-04-07T18:19:39.797Z,15.70
2019-04-07T18:22:12.602Z,15.60
2019-04-07T18:24:59.629Z,15.60
2019-04-07T18:27:48.240Z,15.50
2019-04-07T18:30:18.614Z,15.30
2019-04-07T18:33:04.279Z,15.20
2019-04-07T18:35:43.345Z,15.20
2019-04-07T18:38:29.817Z,15.00
2019-04-07T18:41:09.348Z,15.00
2019-04-07T18:43:52.008Z,14.80
2019-04-07T18:46:21.514Z,14.80
2019-04-07T18:49:06.446Z,14.70
2019-04-07T18:51:47.149Z,14.70
2019-04-07T18:54:14.095Z,14.70
2019-04-07T18:56:47.523Z,14.60
2019-04-07T18:59:26.956Z,14.50
2019-04-07T19:02:03.253Z,14.50
2019-04-07T19:04:33.428Z,14.40
2019-04-07T19:07:09.756Z,14.40
2019-04-07T19:09:39.867Z,14.30
2019-04-07T19:12:16.805Z,14.30
2019-04-07T19:15:06.530Z,14.20
2019-04-07T19:17:48.177Z,14.10
2019-04-07T19:20:24.771Z,14.10
2019-04-07T19:23:02.390Z,14.00
2019-04-07T19:25:51.172Z,14.00
2019-04-07T19:28:24.056Z,14.00
2019-04-07T19:30:54.996Z,13.90
2019-04-07T19:33:31.089Z,13.80
2019-04-07T19:36:12.092Z,13.70
2019-04-07T19:38:58.512Z,13.60
2019-04-07T19:41:31.118Z,13.50
2019-04-07T19:44:17.607Z,13.50
2019-04-07T19:47:04.555Z,13.50
2019-04-07T19:49:34.797Z,13.50
2019-04-07T19:52:22.899Z,13.60
2019-04-07T19:54:53.098Z,13.50
2019-04-07T19:57:39.350Z,13.50
2019-04-07T20:00:15.375Z,13.50
2019-04-07T20:02:53.425Z,13.40
2019-04-07T20:05:23.713Z,13.40
2019-04-07T20:08:03.065Z,13.40
2019-04-07T20:10:49.877Z,13.40
2019-04-07T20:13:20.108Z,13.30
2019-04-07T20:15:50.205Z,13.30
2019-04-07T20:18:29.999Z,13.20
2019-04-07T20:21:18.312Z,13.10
2019-04-07T20:23:51.008Z,13.10
2019-04-07T20:26:30.473Z,13.00
2019-04-07T20:29:17.199Z,13.00
2019-04-07T20:32:04.678Z,12.90
2019-04-07T20:34:40.133Z,12.80
2019-04-07T20:37:07.225Z,12.70
2019-04-07T20:39:37.718Z,12.70
2019-04-07T20:42:11.411Z,12.60
2019-04-07T20:44:59.970Z,12.50
2019-04-07T20:47:26.369Z,12.40
2019-04-07T20:50:14.313Z,12.50
2019-04-07T20:52:46.024Z,12.50
2019-04-07T20:55:16.207Z,12.40
2019-04-07T20:58:13.167Z,12.40
2019-04-07T21:00:57.660Z,12.40
2019-04-07T21:03:23.778Z,12.40
2019-04-07T21:05:56.003Z,12.30
2019-04-07T21:08:29.944Z,12.30
2019-04-07T21:11:09.731Z,12.30
2019-04-07T21:13:49.050Z,12.30
2019-04-07T21:16:25.967Z,12.20
2019-04-07T21:19:07.693Z,12.20
2019-04-07T21:21:41.647Z,12.10
2019-04-07T21:24:10.286Z,12.10
2019-04-07T21:26:49.297Z,12.00
2019-04-07T21:29:22.512Z,12.00
2019-04-07T21:31:53.547Z,11.90
2019-04-07T21:34:30.650Z,11.90
2019-04-07T21:37:04.723Z,11.90
2019-04-07T21:39:51.614Z,11.80
2019-04-07T21:42:22.236Z,11.80
2019-04-07T21:45:05.470Z,11.80
2019-04-07T21:47:39.771Z,11.80
2019-04-07T21:50:13.894Z,11.70
2019-04-07T21:52:55.898Z,11.70
2019-04-07T21:55:31.720Z,11.60
2019-04-07T21:58:19.594Z,11.60
2019-04-07T22:01:08.519Z,11.50
2019-04-07T22:03:48.105Z,11.40
2019-04-07T22:06:17.742Z,11.40
2019-04-07T22:09:04.642Z,11.40
2019-04-07T22:11:33.176Z,11.30
2019-04-07T22:14:04.036Z,11.40
2019-04-07T22:16:32.833Z,11.40
2019-04-07T22:19:02.238Z,11.40
2019-04-07T22:21:30.754Z,11.50
2019-04-07T22:24:01.354Z,11.50
2019-04-07T22:26:29.635Z,11.50
2019-04-07T22:29:01.272Z,11.50
2019-04-07T22:31:36.657Z,11.40
2019-04-07T22:34:05.392Z,11.40
2019-04-07T22:36:33.908Z,11.30
2019-04-07T22:39:02.512Z,11.20
2019-04-07T22:41:31.690Z,11.10
2019-04-07T22:44:00.226Z,11.10
2019-04-07T22:46:29.060Z,11.00
2019-04-07T22:48:58.729Z,11.00
2019-04-07T22:51:28.541Z,11.00
2019-04-07T22:53:57.713Z,11.00
2019-04-07T22:56:27.949Z,11.00
2019-04-07T22:58:56.487Z,11.00
2019-04-07T23:01:25.083Z,10.90
2019-04-07T23:03:53.813Z,10.90
2019-04-07T23:06:23.189Z,10.90
2019-04-07T23:08:51.657Z,10.80
2019-04-07T23:11:20.435Z,10.70
2019-04-07T23:13:49.330Z,10.60
2019-04-07T23:16:18.860Z,10.60
2019-04-07T23:18:47.789Z,10.50
2019-04-07T23:21:17.162Z,10.50
2019-04-07T23:23:46.227Z,10.40
2019-04-07T23:26:14.888Z,10.40
2019-04-07T23:28:44.294Z,10.40
2019-04-07T23:31:13.681Z,10.30
2019-04-07T23:33:42.321Z,10.30
2019-04-07T23:36:11.576Z,10.20
2019-04-07T23:38:41.068Z,10.10
2019-04-07T23:41:09.676Z,10.10
2019-04-07T23:43:38.123Z,10.70
2019-04-07T23:46:18.768Z,10.00
2019-04-07T23:48:36.765Z,9.90
2019-04-07T23:51:05.864Z,9.90
2019-04-07T23:54:09.005Z,9.80
2019-04-07T23:56:39.193Z,9.70
2019-04-07T23:59:08.210Z,9.60
